createdAt,value
2018-02-17T00:00:11.174Z,7.63
2018-02-17T00:02:39.450Z,7.03
2018-02-17T00:05:07.758Z,6.27
2018-02-17T00:07:35.338Z,6.20
2018-02-17T00:10:02.885Z,5.70
2018-02-17T00:12:30.392Z,5.23
2018-02-17T00:14:57.923Z,6.70
2018-02-17T00:17:25.457Z,10.13
2018-02-17T00:19:53.010Z,5.97
2018-02-17T00:22:20.534Z,5.97
2018-02-17T00:24:48.026Z,8.20
2018-02-17T00:27:15.594Z,7.80
2018-02-17T00:29:43.862Z,6.40
2018-02-17T00:32:12.174Z,6.50
2018-02-17T00:34:39.714Z,9.03
2018-02-17T00:37:07.232Z,5.37
2018-02-17T00:39:34.730Z,6.60
2018-02-17T00:42:03.014Z,5.70
2018-02-17T00:44:30.539Z,4.43
2018-02-17T00:46:58.078Z,6.37
2018-02-17T00:49:25.591Z,6.23
2018-02-17T00:51:53.893Z,5.23
2018-02-17T00:54:21.413Z,5.13
2018-02-17T00:56:48.917Z,6.03
2018-02-17T00:59:16.459Z,5.87
2018-02-17T01:01:44.005Z,5.23
2018-02-17T01:04:12.298Z,5.00
2018-02-17T01:09:13.717Z,5.70
2018-02-17T01:11:41.246Z,8.83
2018-02-17T01:14:08.778Z,6.10
2018-02-17T01:16:37.086Z,6.60
2018-02-17T01:19:04.601Z,5.33
2018-02-17T01:21:32.891Z,5.03
2018-02-17T01:24:01.149Z,5.70
2018-02-17T01:26:28.682Z,7.07
2018-02-17T01:28:56.179Z,6.47
2018-02-17T01:31:24.469Z,6.40
2018-02-17T01:33:52.772Z,7.90
2018-02-17T01:36:20.307Z,7.00
2018-02-17T01:38:47.866Z,7.87
2018-02-17T01:41:16.140Z,8.27
2018-02-17T01:43:44.412Z,6.97
2018-02-17T01:46:12.673Z,6.97
2018-02-17T01:48:40.214Z,9.03
2018-02-17T01:51:07.731Z,7.23
2018-02-17T01:53:35.260Z,6.80
2018-02-17T01:56:03.568Z,12.00
2018-02-17T01:58:31.090Z,13.83
2018-02-17T02:00:58.598Z,15.17
2018-02-17T02:03:26.115Z,15.03
2018-02-17T02:05:53.734Z,14.20
2018-02-17T02:08:21.242Z,12.67
2018-02-17T02:10:49.518Z,9.27
2018-02-17T02:13:17.039Z,10.43
2018-02-17T02:15:44.578Z,12.13
2018-02-17T02:18:12.112Z,13.90
2018-02-17T02:20:39.604Z,12.90
2018-02-17T02:23:07.109Z,9.80
2018-02-17T02:25:34.628Z,15.30
2018-02-17T02:28:02.135Z,11.23
2018-02-17T02:30:30.431Z,11.13
2018-02-17T02:32:57.979Z,11.03
2018-02-17T02:35:26.272Z,10.23
2018-02-17T02:37:53.822Z,13.43
2018-02-17T02:40:22.100Z,16.87
2018-02-17T02:42:49.642Z,14.60
2018-02-17T02:45:17.962Z,17.27
2018-02-17T02:47:45.494Z,16.40
2018-02-17T02:50:13.033Z,18.60
2018-02-17T02:52:40.572Z,13.87
2018-02-17T02:55:08.118Z,13.67
2018-02-17T02:57:35.638Z,16.00
2018-02-17T03:00:03.160Z,14.83
2018-02-17T03:02:30.702Z,17.53
2018-02-17T03:04:58.221Z,18.37
2018-02-17T03:07:25.757Z,12.83
2018-02-17T03:09:54.039Z,16.03
2018-02-17T03:12:22.315Z,20.30
2018-02-17T03:14:49.841Z,16.40
2018-02-17T03:17:17.359Z,13.10
2018-02-17T03:19:44.899Z,17.70
2018-02-17T03:22:13.179Z,15.73
2018-02-17T03:24:40.706Z,17.50
2018-02-17T03:27:08.221Z,14.50
2018-02-17T03:29:35.717Z,14.30
2018-02-17T03:32:03.242Z,17.37
2018-02-17T03:34:30.776Z,24.43
2018-02-17T03:36:58.309Z,16.43
2018-02-17T03:39:25.833Z,13.87
2018-02-17T03:41:53.356Z,21.67
2018-02-17T03:44:20.873Z,19.37
2018-02-17T03:46:48.386Z,18.27
2018-02-17T03:49:15.914Z,19.10
2018-02-17T03:51:44.159Z,19.93
2018-02-17T03:54:11.754Z,17.80
2018-02-17T03:56:40.041Z,22.23
2018-02-17T03:59:07.575Z,17.87
2018-02-17T04:01:35.866Z,19.00
2018-02-17T04:04:04.158Z,18.70
2018-02-17T04:06:31.670Z,20.63
2018-02-17T04:08:59.203Z,20.13
2018-02-17T04:11:26.738Z,20.20
2018-02-17T04:13:54.236Z,26.67
2018-02-17T04:16:21.752Z,20.37
2018-02-17T04:18:49.295Z,20.53
2018-02-17T04:21:17.602Z,20.97
2018-02-17T04:23:45.115Z,18.93
2018-02-17T04:26:13.402Z,20.63
2018-02-17T04:28:41.701Z,21.43
2018-02-17T04:31:09.413Z,24.83
2018-02-17T04:33:36.950Z,25.13
2018-02-17T04:36:04.472Z,26.70
2018-02-17T04:38:31.987Z,23.33
2018-02-17T04:41:05.132Z,23.03
2018-02-17T04:43:32.666Z,25.20
2018-02-17T04:46:03.150Z,26.43
2018-02-17T04:48:33.138Z,28.10
2018-02-17T04:51:04.118Z,25.37
2018-02-17T04:53:42.348Z,25.03
2018-02-17T04:56:16.236Z,23.00
2018-02-17T04:58:53.706Z,21.73
2018-02-17T05:01:21.764Z,27.20
2018-02-17T05:06:53.335Z,31.23
2018-02-17T05:09:20.834Z,30.70
2018-02-17T05:11:48.337Z,28.70
2018-02-17T05:14:21.392Z,25.40
2018-02-17T05:16:50.506Z,25.83
2018-02-17T05:19:20.554Z,28.40
2018-02-17T05:21:52.738Z,29.93
2018-02-17T05:24:23.842Z,32.60
2018-02-17T05:26:53.813Z,29.50
2018-02-17T05:29:24.928Z,33.47
2018-02-17T05:31:52.914Z,29.23
2018-02-17T05:34:21.385Z,30.70
2018-02-17T05:36:51.395Z,26.30
2018-02-17T05:39:18.903Z,30.57
2018-02-17T05:41:52.082Z,31.33
2018-02-17T05:44:40.361Z,31.90
2018-02-17T05:47:10.251Z,33.93
2018-02-17T05:49:39.329Z,30.03
2018-02-17T05:52:06.903Z,27.47
2018-02-17T05:54:34.408Z,31.00
2018-02-17T05:57:01.927Z,30.53
2018-02-17T05:59:30.198Z,33.50
2018-02-17T06:01:58.461Z,29.10
2018-02-17T06:04:25.988Z,32.23
2018-02-17T06:06:53.478Z,29.87
2018-02-17T06:09:20.987Z,36.47
2018-02-17T06:11:48.474Z,27.87
2018-02-17T06:14:16.020Z,31.07
2018-02-17T06:16:43.517Z,29.67
2018-02-17T06:19:11.033Z,34.23
2018-02-17T06:21:38.529Z,33.40
2018-02-17T06:24:06.047Z,26.70
2018-02-17T06:26:33.550Z,22.53
2018-02-17T06:29:01.051Z,24.77
2018-02-17T06:31:28.559Z,25.37
2018-02-17T06:33:56.081Z,23.80
2018-02-17T06:36:23.613Z,21.67
2018-02-17T06:38:51.134Z,22.80
2018-02-17T06:41:18.659Z,16.27
2018-02-17T06:43:46.181Z,16.20
2018-02-17T06:46:14.431Z,15.73
2018-02-17T06:48:41.944Z,15.87
2018-02-17T06:51:09.446Z,15.73
2018-02-17T06:53:37.010Z,18.33
2018-02-17T06:56:04.524Z,18.50
2018-02-17T06:58:32.145Z,15.50
2018-02-17T07:01:00.434Z,14.50
2018-02-17T07:03:28.755Z,19.60
2018-02-17T07:05:56.296Z,17.10
2018-02-17T07:08:23.818Z,16.40
2018-02-17T07:10:51.366Z,17.47
2018-02-17T07:13:18.943Z,18.07
2018-02-17T07:15:47.234Z,17.70
2018-02-17T07:18:14.806Z,20.07
2018-02-17T07:20:42.368Z,18.33
2018-02-17T07:23:09.914Z,16.87
2018-02-17T07:25:37.469Z,17.00
2018-02-17T07:28:04.983Z,14.73
2018-02-17T07:30:32.520Z,16.97
2018-02-17T07:33:00.028Z,18.60
2018-02-17T07:35:28.344Z,17.10
2018-02-17T07:37:55.915Z,13.83
2018-02-17T07:40:23.457Z,16.60
2018-02-17T07:42:51.731Z,14.33
2018-02-17T07:45:19.259Z,12.60
2018-02-17T07:47:47.604Z,13.50
2018-02-17T07:50:15.147Z,13.07
2018-02-17T07:52:42.700Z,14.50
2018-02-17T07:55:10.232Z,15.73
2018-02-17T07:57:37.753Z,12.17
2018-02-17T08:00:05.312Z,11.23
2018-02-17T08:02:32.921Z,11.53
2018-02-17T08:05:01.212Z,10.33
2018-02-17T08:07:28.730Z,13.10
2018-02-17T08:09:57.022Z,11.33
2018-02-17T08:12:24.580Z,11.90
2018-02-17T08:14:52.106Z,13.00
2018-02-17T08:17:21.145Z,14.00
2018-02-17T08:19:48.679Z,10.10
2018-02-17T08:22:17.877Z,11.00
2018-02-17T08:24:46.149Z,14.60
2018-02-17T08:27:14.521Z,12.00
2018-02-17T08:29:42.809Z,13.57
2018-02-17T08:32:21.021Z,12.40
2018-02-17T08:34:49.320Z,11.73
2018-02-17T08:37:16.860Z,15.07
2018-02-17T08:39:45.200Z,12.77
2018-02-17T08:42:12.917Z,13.30
2018-02-17T08:44:40.527Z,15.00
2018-02-17T08:47:08.085Z,13.10
2018-02-17T08:49:35.642Z,12.80
2018-02-17T08:52:03.186Z,11.50
2018-02-17T08:54:30.731Z,12.57
2018-02-17T08:56:58.270Z,12.83
2018-02-17T08:59:25.838Z,15.63
2018-02-17T09:01:53.337Z,17.03
2018-02-17T09:04:20.841Z,12.50
2018-02-17T09:06:49.147Z,12.80
2018-02-17T09:09:16.668Z,13.40
2018-02-17T09:11:44.979Z,13.97
2018-02-17T09:14:12.506Z,13.63
2018-02-17T09:16:40.839Z,14.50
2018-02-17T09:19:08.387Z,12.73
2018-02-17T09:21:35.930Z,10.93
2018-02-17T09:24:03.436Z,13.33
2018-02-17T09:26:31.005Z,13.23
2018-02-17T09:28:58.533Z,14.67
2018-02-17T09:31:26.093Z,12.83
2018-02-17T09:33:53.614Z,14.13
2018-02-17T09:36:21.162Z,17.50
2018-02-17T09:38:49.463Z,12.97
2018-02-17T09:41:16.998Z,19.43
2018-02-17T09:43:45.292Z,18.40
2018-02-17T09:46:12.853Z,15.57
2018-02-17T09:48:40.393Z,18.00
2018-02-17T09:51:08.708Z,17.30
2018-02-17T09:53:36.262Z,18.60
2018-02-17T09:56:03.884Z,14.27
2018-02-17T09:58:32.169Z,17.00
2018-02-17T10:01:00.489Z,14.17
2018-02-17T10:03:28.042Z,14.20
2018-02-17T10:05:55.610Z,13.67
2018-02-17T10:08:23.155Z,12.10
2018-02-17T10:10:50.688Z,11.90
2018-02-17T10:13:18.244Z,10.87
2018-02-17T10:15:46.571Z,12.17
2018-02-17T10:18:14.149Z,11.17
2018-02-17T10:20:41.698Z,13.17
2018-02-17T10:23:09.267Z,17.03
2018-02-17T10:25:36.814Z,11.57
2018-02-17T10:28:04.630Z,14.03
2018-02-17T10:30:32.188Z,11.53
2018-02-17T10:33:00.512Z,15.63
2018-02-17T10:35:28.097Z,15.10
2018-02-17T10:37:56.583Z,12.33
2018-02-17T10:40:24.122Z,11.40
2018-02-17T10:42:52.750Z,13.53
2018-02-17T10:45:21.115Z,13.90
2018-02-17T10:47:48.691Z,14.13
2018-02-17T10:50:17.051Z,11.27
2018-02-17T10:52:44.602Z,10.67
2018-02-17T10:55:12.338Z,12.90
2018-02-17T10:57:39.878Z,13.00
2018-02-17T11:00:07.428Z,11.10
2018-02-17T11:02:34.987Z,12.43
2018-02-17T11:05:02.692Z,12.67
2018-02-17T11:07:30.278Z,13.20
2018-02-17T11:09:58.597Z,11.80
2018-02-17T11:12:26.131Z,13.97
2018-02-17T11:14:54.434Z,12.70
2018-02-17T11:17:21.957Z,17.40
2018-02-17T11:19:50.231Z,13.83
2018-02-17T11:22:18.631Z,12.23
2018-02-17T11:24:46.178Z,11.27
2018-02-17T11:27:14.541Z,13.60
2018-02-17T11:29:42.086Z,12.33
2018-02-17T11:32:09.599Z,15.00
2018-02-17T11:34:37.154Z,14.63
2018-02-17T11:37:04.699Z,16.30
2018-02-17T11:39:33.009Z,15.53
2018-02-17T11:42:00.522Z,15.27
2018-02-17T11:44:28.816Z,18.43
2018-02-17T11:46:57.092Z,18.63
2018-02-17T11:49:25.417Z,18.93
2018-02-17T11:51:53.000Z,16.90
2018-02-17T11:54:20.529Z,22.10
2018-02-17T11:56:48.074Z,22.30
2018-02-17T11:59:15.593Z,20.40
2018-02-17T12:01:43.897Z,20.13
2018-02-17T12:04:11.428Z,17.73
2018-02-17T12:06:39.719Z,20.97
2018-02-17T12:09:08.033Z,19.90
2018-02-17T12:11:35.559Z,16.07
2018-02-17T12:14:03.836Z,18.30
2018-02-17T12:16:32.117Z,15.83
2018-02-17T12:18:59.676Z,16.50
2018-02-17T12:21:27.241Z,19.50
2018-02-17T12:23:54.775Z,17.60
2018-02-17T12:26:23.074Z,18.30
2018-02-17T12:28:50.625Z,15.70
2018-02-17T12:31:19.748Z,17.40
2018-02-17T12:33:47.267Z,16.80
2018-02-17T12:36:15.639Z,15.20
2018-02-17T12:38:43.139Z,18.27
2018-02-17T12:41:10.645Z,14.97
2018-02-17T12:43:38.155Z,14.13
2018-02-17T12:46:05.658Z,15.27
2018-02-17T12:48:33.149Z,17.13
2018-02-17T12:51:01.405Z,17.33
2018-02-17T12:53:29.674Z,19.13
2018-02-17T12:55:57.221Z,13.80
2018-02-17T12:58:24.691Z,15.27
2018-02-17T13:00:53.064Z,15.77
2018-02-17T13:03:20.537Z,16.90
2018-02-17T13:05:48.025Z,16.43
2018-02-17T13:08:15.593Z,15.07
2018-02-17T13:10:43.077Z,16.03
2018-02-17T13:13:10.706Z,15.47
2018-02-17T13:15:38.199Z,14.37
2018-02-17T13:18:05.669Z,16.03
2018-02-17T13:20:33.134Z,18.87
2018-02-17T13:23:00.700Z,17.17
2018-02-17T13:25:28.152Z,17.23
2018-02-17T13:27:55.639Z,12.63
2018-02-17T13:30:23.897Z,18.10
2018-02-17T13:32:51.412Z,13.60
2018-02-17T13:35:20.529Z,12.53
2018-02-17T13:37:48.045Z,14.00
2018-02-17T13:40:15.569Z,14.73
2018-02-17T13:42:43.080Z,11.73
2018-02-17T13:45:10.601Z,13.33
2018-02-17T13:47:38.879Z,12.47
2018-02-17T13:50:07.184Z,11.00
2018-02-17T13:52:34.719Z,13.50
2018-02-17T13:55:03.011Z,14.10
2018-02-17T13:57:30.530Z,15.50
2018-02-17T13:59:58.047Z,22.83
2018-02-17T14:02:25.562Z,16.13
2018-02-17T14:04:53.130Z,17.03
2018-02-17T14:07:21.405Z,16.77
2018-02-17T14:09:49.712Z,19.43
2018-02-17T14:12:17.271Z,17.67
2018-02-17T14:14:44.794Z,15.30
2018-02-17T14:17:13.098Z,16.20
2018-02-17T14:19:40.636Z,18.53
2018-02-17T14:22:08.949Z,15.77
2018-02-17T14:24:36.444Z,16.67
2018-02-17T14:27:03.965Z,16.03
2018-02-17T14:29:31.509Z,15.10
2018-02-17T14:31:58.992Z,14.00
2018-02-17T14:34:26.523Z,14.90
2018-02-17T14:36:54.096Z,16.07
2018-02-17T14:39:21.684Z,13.70
2018-02-17T14:41:49.177Z,13.33
2018-02-17T14:44:17.506Z,12.40
2018-02-17T14:46:44.980Z,13.33
2018-02-17T14:49:12.509Z,15.07
2018-02-17T14:51:39.988Z,15.47
2018-02-17T14:54:07.526Z,14.90
2018-02-17T14:56:35.057Z,14.60
2018-02-17T14:59:03.363Z,13.93
2018-02-17T15:01:30.887Z,12.50
2018-02-17T15:03:59.174Z,15.07
2018-02-17T15:06:26.709Z,15.20
2018-02-17T15:08:54.238Z,12.43
2018-02-17T15:11:21.801Z,11.67
2018-02-17T15:13:49.298Z,15.20
2018-02-17T15:16:17.599Z,14.87
2018-02-17T15:18:45.102Z,15.67
2018-02-17T15:21:12.660Z,14.30
2018-02-17T15:23:40.201Z,12.90
2018-02-17T15:26:07.766Z,12.07
2018-02-17T15:28:35.269Z,16.77
2018-02-17T15:31:03.559Z,13.67
2018-02-17T15:33:31.846Z,15.90
2018-02-17T15:35:59.406Z,16.13
2018-02-17T15:38:26.899Z,16.30
2018-02-17T15:40:54.417Z,19.20
2018-02-17T15:43:21.943Z,18.00
2018-02-17T15:45:49.521Z,20.83
2018-02-17T15:48:17.831Z,20.03
2018-02-17T15:50:45.340Z,21.13
2018-02-17T15:53:12.852Z,17.80
2018-02-17T15:55:40.350Z,20.20
2018-02-17T15:58:07.876Z,20.97
2018-02-17T16:00:35.401Z,19.77
2018-02-17T16:03:03.669Z,22.63
2018-02-17T16:05:32.004Z,21.20
2018-02-17T16:07:59.513Z,19.50
2018-02-17T16:10:27.810Z,17.73
2018-02-17T16:12:55.308Z,20.13
2018-02-17T16:15:24.313Z,20.90
2018-02-17T16:17:51.835Z,24.67
2018-02-17T16:20:19.338Z,19.93
2018-02-17T16:22:46.842Z,20.13
2018-02-17T16:25:14.382Z,16.90
2018-02-17T16:27:42.633Z,17.67
2018-02-17T16:30:10.941Z,16.37
2018-02-17T16:32:38.452Z,18.07
2018-02-17T16:35:05.922Z,18.43
2018-02-17T16:37:33.401Z,15.87
2018-02-17T16:40:05.809Z,17.33
2018-02-17T16:42:33.262Z,18.40
2018-02-17T16:45:00.741Z,15.53
2018-02-17T16:47:28.253Z,16.73
2018-02-17T16:49:56.619Z,18.40
2018-02-17T16:52:24.868Z,19.20
2018-02-17T16:54:52.332Z,16.17
2018-02-17T16:57:19.812Z,19.00
2018-02-17T16:59:47.273Z,17.70
2018-02-17T17:02:15.549Z,16.60
2018-02-17T17:04:42.989Z,15.20
2018-02-17T17:07:10.453Z,16.57
2018-02-17T17:09:37.909Z,18.27
2018-02-17T17:12:05.385Z,18.23
2018-02-17T17:14:33.610Z,19.10
2018-02-17T17:17:01.088Z,18.70
2018-02-17T17:19:28.560Z,18.60
2018-02-17T17:21:56.032Z,20.00
2018-02-17T17:24:24.257Z,18.37
2018-02-17T17:26:51.715Z,15.10
2018-02-17T17:29:29.382Z,14.37
2018-02-17T17:31:57.074Z,17.73
2018-02-17T17:34:24.576Z,18.63
2018-02-17T17:36:53.035Z,18.23
2018-02-17T17:39:20.783Z,15.97
2018-02-17T17:41:48.266Z,15.10
2018-02-17T17:44:15.812Z,15.87
2018-02-17T17:46:43.376Z,23.17
2018-02-17T17:49:12.314Z,19.80
2018-02-17T17:51:39.823Z,17.30
2018-02-17T17:54:07.428Z,19.33
2018-02-17T17:56:34.917Z,16.97
2018-02-17T17:59:02.414Z,19.77
2018-02-17T18:01:29.920Z,20.87
2018-02-17T18:03:57.386Z,18.40
2018-02-17T18:06:24.886Z,18.23
2018-02-17T18:08:52.344Z,18.57
2018-02-17T18:11:19.804Z,18.63
2018-02-17T18:13:47.276Z,19.83
2018-02-17T18:16:15.503Z,18.87
2018-02-17T18:18:42.975Z,17.87
2018-02-17T18:21:10.530Z,21.37
2018-02-17T18:23:38.008Z,18.77
2018-02-17T18:26:05.472Z,18.23
2018-02-17T18:28:32.948Z,21.90
2018-02-17T18:31:01.185Z,20.47
2018-02-17T18:33:28.654Z,20.37
2018-02-17T18:35:56.113Z,20.13
2018-02-17T18:38:33.539Z,20.60
2018-02-17T18:41:01.005Z,19.10
2018-02-17T18:43:28.492Z,22.37
2018-02-17T18:45:55.964Z,17.80
2018-02-17T18:48:23.432Z,19.53
2018-02-17T18:50:50.886Z,17.80
2018-02-17T18:53:18.376Z,19.10
2018-02-17T18:55:46.601Z,22.30
2018-02-17T18:58:14.159Z,24.40
2018-02-17T19:00:41.630Z,19.87
2018-02-17T19:03:09.124Z,19.50
2018-02-17T19:05:37.348Z,20.10
2018-02-17T19:08:04.807Z,23.87
2018-02-17T19:10:32.259Z,27.70
2018-02-17T19:12:59.723Z,22.67
2018-02-17T19:15:27.200Z,20.63
2018-02-17T19:17:54.661Z,22.07
2018-02-17T19:20:22.115Z,20.30
2018-02-17T19:22:49.587Z,17.83
2018-02-17T19:25:17.043Z,19.50
2018-02-17T19:27:44.509Z,35.23
2018-02-17T19:30:12.732Z,31.17
2018-02-17T19:32:40.198Z,25.70
2018-02-17T19:35:08.442Z,28.13
2018-02-17T19:37:35.901Z,28.30
2018-02-17T19:40:03.374Z,27.20
2018-02-17T19:42:30.828Z,24.60
2018-02-17T19:44:58.296Z,20.63
2018-02-17T19:47:26.046Z,25.13
2018-02-17T19:49:53.648Z,21.20
2018-02-17T19:52:21.153Z,22.83
2018-02-17T19:54:49.372Z,26.40
2018-02-17T19:57:16.834Z,26.37
2018-02-17T19:59:44.303Z,32.60
2018-02-17T20:02:11.753Z,23.77
2018-02-17T20:04:39.215Z,21.17
2018-02-17T20:07:06.769Z,15.37
2018-02-17T20:09:34.261Z,18.20
2018-02-17T20:12:02.481Z,19.33
2018-02-17T20:14:29.954Z,17.23
2018-02-17T20:16:57.405Z,16.67
2018-02-17T20:19:24.889Z,18.23
2018-02-17T20:21:52.351Z,19.63
2018-02-17T20:24:19.820Z,19.67
2018-02-17T20:26:48.039Z,20.40
2018-02-17T20:29:15.513Z,18.73
2018-02-17T20:31:42.969Z,21.43
2018-02-17T20:34:10.437Z,19.53
2018-02-17T20:36:37.899Z,21.17
2018-02-17T20:39:05.360Z,19.67
2018-02-17T20:41:34.343Z,23.87
2018-02-17T20:44:01.852Z,22.10
2018-02-17T20:46:29.323Z,23.20
2018-02-17T20:48:56.788Z,20.10
2018-02-17T20:51:24.256Z,20.90
2018-02-17T20:53:51.721Z,23.17
2018-02-17T20:56:19.186Z,23.53
2018-02-17T20:58:46.659Z,21.27
2018-02-17T21:01:14.115Z,19.37
2018-02-17T21:03:41.573Z,26.43
2018-02-17T21:06:09.055Z,19.60
2018-02-17T21:08:37.296Z,20.73
2018-02-17T21:11:04.759Z,19.13
2018-02-17T21:13:32.223Z,23.73
2018-02-17T21:15:59.704Z,24.17
2018-02-17T21:18:27.936Z,24.13
2018-02-17T21:20:55.413Z,21.70
2018-02-17T21:23:22.875Z,22.27
2018-02-17T21:25:50.335Z,23.90
2018-02-17T21:28:17.797Z,24.13
2018-02-17T21:30:46.031Z,24.17
2018-02-17T21:33:13.508Z,27.70
2018-02-17T21:35:40.988Z,23.20
2018-02-17T21:38:08.444Z,25.93
2018-02-17T21:40:36.684Z,24.07
2018-02-17T21:43:04.142Z,25.60
2018-02-17T21:45:31.605Z,28.30
2018-02-17T21:47:59.069Z,25.90
2018-02-17T21:50:26.536Z,28.03
2018-02-17T21:52:54.042Z,31.90
2018-02-17T21:55:21.512Z,27.47
2018-02-17T21:57:48.974Z,29.20
2018-02-17T22:00:16.449Z,29.30
2018-02-17T22:02:43.903Z,27.30
2018-02-17T22:05:11.374Z,32.23
2018-02-17T22:07:38.832Z,32.20
2018-02-17T22:10:06.292Z,34.27
2018-02-17T22:12:33.784Z,35.83
2018-02-17T22:15:01.242Z,42.37
2018-02-17T22:17:29.470Z,35.30
2018-02-17T22:19:56.927Z,38.37
2018-02-17T22:22:24.446Z,37.20
2018-02-17T22:24:51.896Z,36.10
2018-02-17T22:27:19.370Z,29.13
2018-02-17T22:29:46.824Z,36.83
2018-02-17T22:32:14.287Z,43.97
2018-02-17T22:34:41.744Z,34.73
2018-02-17T22:37:09.208Z,46.97
2018-02-17T22:39:36.672Z,45.83
2018-02-17T22:42:04.142Z,45.63
2018-02-17T22:44:31.608Z,41.70
2018-02-17T22:46:59.084Z,45.27
2018-02-17T22:49:26.544Z,55.93
2018-02-17T22:51:54.005Z,51.80
2018-02-17T22:54:21.468Z,50.30
2018-02-17T22:56:49.713Z,51.37
2018-02-17T22:59:17.165Z,47.87
2018-02-17T23:01:44.629Z,52.10
2018-02-17T23:04:12.085Z,53.10
2018-02-17T23:06:40.325Z,52.87
2018-02-17T23:09:07.778Z,57.60
2018-02-17T23:11:35.248Z,46.50
2018-02-17T23:14:02.704Z,45.00
2018-02-17T23:16:30.165Z,54.23
2018-02-17T23:18:57.622Z,50.90
2018-02-17T23:21:25.083Z,46.53
2018-02-17T23:23:52.540Z,45.93
2018-02-17T23:26:20.011Z,44.77
2018-02-17T23:28:47.473Z,45.33
2018-02-17T23:31:14.933Z,74.90
2018-02-17T23:33:42.393Z,48.57
2018-02-17T23:36:09.849Z,52.10
2018-02-17T23:38:37.312Z,51.50
2018-02-17T23:41:04.781Z,48.10
2018-02-17T23:43:32.243Z,37.73
2018-02-17T23:45:59.691Z,48.33
2018-02-17T23:48:27.159Z,53.00
2018-02-17T23:50:54.617Z,52.63
2018-02-17T23:53:22.083Z,51.80
2018-02-17T23:55:50.320Z,57.03
2018-02-17T23:58:17.788Z,54.03
